sensor_id;sensor_type;location;lat;lon;timestamp;temperature;humidity
42979;DHT22;28616;44.746;19.678;2023-07-28T00:02:06;16.80;99.90
42979;DHT22;28616;44.746;19.678;2023-07-28T00:04:34;16.90;99.90
42979;DHT22;28616;44.746;19.678;2023-07-28T00:07:00;16.90;99.90
42979;DHT22;28616;44.746;19.678;2023-07-28T00:09:26;16.90;99.90
42979;DHT22;28616;44.746;19.678;2023-07-28T00:11:52;16.90;99.90
42979;DHT22;28616;44.746;19.678;2023-07-28T00:14:17;16.90;99.90
42979;DHT22;28616;44.746;19.678;2023-07-28T00:16:43;16.90;99.90
42979;DHT22;28616;44.746;19.678;2023-07-28T00:19:09;16.90;99.90
42979;DHT22;28616;44.746;19.678;2023-07-28T00:21:35;16.90;99.90
42979;DHT22;28616;44.746;19.678;2023-07-28T00:24:01;16.80;99.90
42979;DHT22;28616;44.746;19.678;2023-07-28T00:26:26;16.80;99.90
42979;DHT22;28616;44.746;19.678;2023-07-28T00:28:52;16.80;99.90
42979;DHT22;28616;44.746;19.678;2023-07-28T00:31:18;16.70;99.90
42979;DHT22;28616;44.746;19.678;2023-07-28T00:33:44;16.80;99.90
42979;DHT22;28616;44.746;19.678;2023-07-28T00:36:09;16.70;99.90
42979;DHT22;28616;44.746;19.678;2023-07-28T00:38:35;16.70;99.90
42979;DHT22;28616;44.746;19.678;2023-07-28T00:41:01;16.80;99.90
42979;DHT22;28616;44.746;19.678;2023-07-28T00:43:27;16.80;99.90
42979;DHT22;28616;44.746;19.678;2023-07-28T00:45:53;16.70;99.90
42979;DHT22;28616;44.746;19.678;2023-07-28T00:48:19;16.70;99.90
42979;DHT22;28616;44.746;19.678;2023-07-28T00:50:48;16.80;99.90
42979;DHT22;28616;44.746;19.678;2023-07-28T00:53:14;16.70;99.90
42979;DHT22;28616;44.746;19.678;2023-07-28T00:55:41;16.70;99.90
42979;DHT22;28616;44.746;19.678;2023-07-28T00:58:08;16.70;99.90
42979;DHT22;28616;44.746;19.678;2023-07-28T01:00:35;16.70;99.90
42979;DHT22;28616;44.746;19.678;2023-07-28T01:03:01;16.70;99.90
42979;DHT22;28616;44.746;19.678;2023-07-28T01:08:36;16.70;99.90
42979;DHT22;28616;44.746;19.678;2023-07-28T01:11:04;16.70;99.90
42979;DHT22;28616;44.746;19.678;2023-07-28T01:13:29;16.70;99.90
42979;DHT22;28616;44.746;19.678;2023-07-28T01:15:55;16.70;99.90
42979;DHT22;28616;44.746;19.678;2023-07-28T01:18:21;16.60;99.90
42979;DHT22;28616;44.746;19.678;2023-07-28T01:20:47;16.60;99.90
42979;DHT22;28616;44.746;19.678;2023-07-28T01:23:20;16.60;99.90
42979;DHT22;28616;44.746;19.678;2023-07-28T01:26:08;16.70;99.90
42979;DHT22;28616;44.746;19.678;2023-07-28T01:28:34;16.60;99.90
42979;DHT22;28616;44.746;19.678;2023-07-28T01:31:05;16.60;99.90
42979;DHT22;28616;44.746;19.678;2023-07-28T01:33:31;16.60;99.90
42979;DHT22;28616;44.746;19.678;2023-07-28T01:35:57;16.50;99.90
42979;DHT22;28616;44.746;19.678;2023-07-28T01:38:25;16.50;99.90
42979;DHT22;28616;44.746;19.678;2023-07-28T01:40:51;16.40;99.90
42979;DHT22;28616;44.746;19.678;2023-07-28T01:43:17;16.40;99.90
42979;DHT22;28616;44.746;19.678;2023-07-28T01:45:42;16.40;99.90
42979;DHT22;28616;44.746;19.678;2023-07-28T01:48:08;16.40;99.90
42979;DHT22;28616;44.746;19.678;2023-07-28T01:50:35;16.30;99.90
42979;DHT22;28616;44.746;19.678;2023-07-28T01:53:01;16.30;99.90
42979;DHT22;28616;44.746;19.678;2023-07-28T01:55:27;16.30;99.90
42979;DHT22;28616;44.746;19.678;2023-07-28T01:58:01;16.20;99.90
42979;DHT22;28616;44.746;19.678;2023-07-28T02:00:28;16.20;99.90
42979;DHT22;28616;44.746;19.678;2023-07-28T02:02:54;16.10;99.90
42979;DHT22;28616;44.746;19.678;2023-07-28T02:05:20;16.10;99.90
42979;DHT22;28616;44.746;19.678;2023-07-28T02:07:47;16.00;99.90
42979;DHT22;28616;44.746;19.678;2023-07-28T02:10:13;16.00;99.90
42979;DHT22;28616;44.746;19.678;2023-07-28T02:12:39;16.00;99.90
42979;DHT22;28616;44.746;19.678;2023-07-28T02:15:06;16.00;99.90
42979;DHT22;28616;44.746;19.678;2023-07-28T02:17:32;16.00;99.90
42979;DHT22;28616;44.746;19.678;2023-07-28T02:19:57;16.00;99.90
42979;DHT22;28616;44.746;19.678;2023-07-28T02:22:23;16.00;99.90
42979;DHT22;28616;44.746;19.678;2023-07-28T02:24:49;16.00;99.90
42979;DHT22;28616;44.746;19.678;2023-07-28T02:27:15;16.00;99.90
42979;DHT22;28616;44.746;19.678;2023-07-28T02:29:41;15.90;99.90
42979;DHT22;28616;44.746;19.678;2023-07-28T02:32:07;15.90;99.90
42979;DHT22;28616;44.746;19.678;2023-07-28T02:34:33;15.90;99.90
42979;DHT22;28616;44.746;19.678;2023-07-28T02:36:59;15.90;99.90
42979;DHT22;28616;44.746;19.678;2023-07-28T02:39:25;15.90;99.90
42979;DHT22;28616;44.746;19.678;2023-07-28T02:41:50;15.90;99.90
42979;DHT22;28616;44.746;19.678;2023-07-28T02:44:16;15.90;99.90
42979;DHT22;28616;44.746;19.678;2023-07-28T02:46:42;15.80;99.90
42979;DHT22;28616;44.746;19.678;2023-07-28T02:49:08;15.80;99.90
42979;DHT22;28616;44.746;19.678;2023-07-28T02:51:33;15.80;99.90
42979;DHT22;28616;44.746;19.678;2023-07-28T03:00:44;15.60;99.90
42979;DHT22;28616;44.746;19.678;2023-07-28T03:03:12;15.50;99.90
42979;DHT22;28616;44.746;19.678;2023-07-28T03:05:39;15.40;99.90
42979;DHT22;28616;44.746;19.678;2023-07-28T03:08:05;15.30;99.90
42979;DHT22;28616;44.746;19.678;2023-07-28T03:10:32;15.30;99.90
42979;DHT22;28616;44.746;19.678;2023-07-28T03:12:58;15.40;99.90
42979;DHT22;28616;44.746;19.678;2023-07-28T03:15:24;15.30;99.90
42979;DHT22;28616;44.746;19.678;2023-07-28T03:17:50;15.30;99.90
42979;DHT22;28616;44.746;19.678;2023-07-28T03:20:16;15.20;99.90
42979;DHT22;28616;44.746;19.678;2023-07-28T03:22:42;15.20;99.90
42979;DHT22;28616;44.746;19.678;2023-07-28T03:25:08;15.20;99.90
42979;DHT22;28616;44.746;19.678;2023-07-28T03:27:34;15.20;99.90
42979;DHT22;28616;44.746;19.678;2023-07-28T03:30:00;15.20;99.90
42979;DHT22;28616;44.746;19.678;2023-07-28T03:32:26;15.20;99.90
42979;DHT22;28616;44.746;19.678;2023-07-28T03:34:52;15.20;99.90
42979;DHT22;28616;44.746;19.678;2023-07-28T03:37:18;15.20;99.90
42979;DHT22;28616;44.746;19.678;2023-07-28T03:39:44;15.20;99.90
42979;DHT22;28616;44.746;19.678;2023-07-28T03:42:10;15.20;99.90
42979;DHT22;28616;44.746;19.678;2023-07-28T03:44:36;15.20;99.90
42979;DHT22;28616;44.746;19.678;2023-07-28T03:47:07;15.30;99.90
42979;DHT22;28616;44.746;19.678;2023-07-28T03:49:33;15.30;99.90
42979;DHT22;28616;44.746;19.678;2023-07-28T03:51:59;15.30;99.90
42979;DHT22;28616;44.746;19.678;2023-07-28T03:54:24;15.30;99.90
42979;DHT22;28616;44.746;19.678;2023-07-28T03:56:50;15.30;99.90
42979;DHT22;28616;44.746;19.678;2023-07-28T03:59:16;15.40;99.90
42979;DHT22;28616;44.746;19.678;2023-07-28T04:01:42;15.40;99.90
42979;DHT22;28616;44.746;19.678;2023-07-28T04:04:08;15.30;99.90
42979;DHT22;28616;44.746;19.678;2023-07-28T04:06:45;15.30;99.90
42979;DHT22;28616;44.746;19.678;2023-07-28T04:09:13;15.40;99.90
42979;DHT22;28616;44.746;19.678;2023-07-28T04:11:39;15.40;99.90
42979;DHT22;28616;44.746;19.678;2023-07-28T04:14:05;15.40;99.90
42979;DHT22;28616;44.746;19.678;2023-07-28T04:16:31;15.50;99.90
42979;DHT22;28616;44.746;19.678;2023-07-28T04:18:57;15.50;99.90
42979;DHT22;28616;44.746;19.678;2023-07-28T04:21:23;15.60;99.90
42979;DHT22;28616;44.746;19.678;2023-07-28T04:23:49;15.60;99.90
42979;DHT22;28616;44.746;19.678;2023-07-28T04:26:15;15.70;99.90
42979;DHT22;28616;44.746;19.678;2023-07-28T04:28:41;15.80;99.90
42979;DHT22;28616;44.746;19.678;2023-07-28T04:31:07;15.80;99.90
42979;DHT22;28616;44.746;19.678;2023-07-28T04:33:33;15.90;99.90
42979;DHT22;28616;44.746;19.678;2023-07-28T04:36:02;16.00;99.90
42979;DHT22;28616;44.746;19.678;2023-07-28T04:38:27;16.10;99.90
42979;DHT22;28616;44.746;19.678;2023-07-28T04:40:53;16.10;99.90
42979;DHT22;28616;44.746;19.678;2023-07-28T04:43:19;16.10;99.90
42979;DHT22;28616;44.746;19.678;2023-07-28T04:45:45;16.10;99.90
42979;DHT22;28616;44.746;19.678;2023-07-28T04:48:11;16.20;99.90
42979;DHT22;28616;44.746;19.678;2023-07-28T04:50:37;16.20;99.90
42979;DHT22;28616;44.746;19.678;2023-07-28T04:53:03;16.30;99.90
42979;DHT22;28616;44.746;19.678;2023-07-28T04:55:29;16.40;99.90
42979;DHT22;28616;44.746;19.678;2023-07-28T04:57:55;16.50;99.90
42979;DHT22;28616;44.746;19.678;2023-07-28T05:00:21;16.60;99.90
42979;DHT22;28616;44.746;19.678;2023-07-28T05:02:47;16.70;99.90
42979;DHT22;28616;44.746;19.678;2023-07-28T05:05:13;16.80;99.90
42979;DHT22;28616;44.746;19.678;2023-07-28T05:07:38;16.80;99.90
42979;DHT22;28616;44.746;19.678;2023-07-28T05:10:04;16.80;99.90
42979;DHT22;28616;44.746;19.678;2023-07-28T05:12:30;16.90;99.90
42979;DHT22;28616;44.746;19.678;2023-07-28T05:14:56;17.00;99.90
42979;DHT22;28616;44.746;19.678;2023-07-28T05:17:22;17.10;99.90
42979;DHT22;28616;44.746;19.678;2023-07-28T05:19:49;17.30;99.90
42979;DHT22;28616;44.746;19.678;2023-07-28T05:22:15;17.40;99.90
42979;DHT22;28616;44.746;19.678;2023-07-28T05:24:41;17.50;99.90
42979;DHT22;28616;44.746;19.678;2023-07-28T05:27:07;17.60;99.90
42979;DHT22;28616;44.746;19.678;2023-07-28T05:29:32;17.80;99.90
42979;DHT22;28616;44.746;19.678;2023-07-28T05:31:59;17.90;99.90
42979;DHT22;28616;44.746;19.678;2023-07-28T05:34:27;18.00;99.90
42979;DHT22;28616;44.746;19.678;2023-07-28T05:36:53;18.20;99.90
42979;DHT22;28616;44.746;19.678;2023-07-28T05:39:19;18.20;99.90
42979;DHT22;28616;44.746;19.678;2023-07-28T05:41:45;18.40;99.90
42979;DHT22;28616;44.746;19.678;2023-07-28T05:44:11;18.40;99.90
42979;DHT22;28616;44.746;19.678;2023-07-28T05:46:36;18.60;99.90
42979;DHT22;28616;44.746;19.678;2023-07-28T05:49:02;18.60;99.90
42979;DHT22;28616;44.746;19.678;2023-07-28T05:51:28;18.70;99.90
42979;DHT22;28616;44.746;19.678;2023-07-28T05:53:54;18.80;99.90
42979;DHT22;28616;44.746;19.678;2023-07-28T05:56:20;18.80;99.90
42979;DHT22;28616;44.746;19.678;2023-07-28T05:58:46;18.90;99.90
42979;DHT22;28616;44.746;19.678;2023-07-28T06:01:12;19.00;99.90
42979;DHT22;28616;44.746;19.678;2023-07-28T06:03:38;19.00;99.90
42979;DHT22;28616;44.746;19.678;2023-07-28T06:06:04;19.20;99.90
42979;DHT22;28616;44.746;19.678;2023-07-28T06:08:30;19.30;99.90
42979;DHT22;28616;44.746;19.678;2023-07-28T06:10:56;19.40;99.90
42979;DHT22;28616;44.746;19.678;2023-07-28T06:13:21;19.50;99.90
42979;DHT22;28616;44.746;19.678;2023-07-28T06:15:47;19.60;99.90
42979;DHT22;28616;44.746;19.678;2023-07-28T06:18:13;19.70;99.90
42979;DHT22;28616;44.746;19.678;2023-07-28T06:20:45;19.80;99.90
42979;DHT22;28616;44.746;19.678;2023-07-28T06:23:11;20.00;99.90
42979;DHT22;28616;44.746;19.678;2023-07-28T06:25:36;20.00;99.90
42979;DHT22;28616;44.746;19.678;2023-07-28T06:28:08;20.20;99.90
42979;DHT22;28616;44.746;19.678;2023-07-28T06:30:33;20.20;99.90
42979;DHT22;28616;44.746;19.678;2023-07-28T06:32:59;20.30;99.90
42979;DHT22;28616;44.746;19.678;2023-07-28T06:35:25;20.40;99.90
42979;DHT22;28616;44.746;19.678;2023-07-28T06:37:50;20.50;99.90
42979;DHT22;28616;44.746;19.678;2023-07-28T06:40:16;20.70;99.90
42979;DHT22;28616;44.746;19.678;2023-07-28T06:42:42;20.70;99.90
42979;DHT22;28616;44.746;19.678;2023-07-28T06:45:08;20.80;99.90
42979;DHT22;28616;44.746;19.678;2023-07-28T06:47:34;21.00;99.90
42979;DHT22;28616;44.746;19.678;2023-07-28T06:50:00;21.10;99.90
42979;DHT22;28616;44.746;19.678;2023-07-28T06:54:53;21.40;99.90
42979;DHT22;28616;44.746;19.678;2023-07-28T06:57:20;21.60;99.90
42979;DHT22;28616;44.746;19.678;2023-07-28T06:59:46;21.70;99.90
42979;DHT22;28616;44.746;19.678;2023-07-28T07:02:11;21.90;99.90
42979;DHT22;28616;44.746;19.678;2023-07-28T07:04:37;22.00;99.90
42979;DHT22;28616;44.746;19.678;2023-07-28T07:09:29;22.10;99.90
42979;DHT22;28616;44.746;19.678;2023-07-28T07:11:55;22.30;99.90
42979;DHT22;28616;44.746;19.678;2023-07-28T07:14:20;22.40;95.80
42979;DHT22;28616;44.746;19.678;2023-07-28T07:19:12;22.50;94.40
42979;DHT22;28616;44.746;19.678;2023-07-28T22:26:07;23.20;99.90
42979;DHT22;28616;44.746;19.678;2023-07-28T22:28:32;23.10;99.90
42979;DHT22;28616;44.746;19.678;2023-07-28T22:30:58;23.00;99.90
42979;DHT22;28616;44.746;19.678;2023-07-28T22:33:24;23.00;99.90
42979;DHT22;28616;44.746;19.678;2023-07-28T22:35:53;23.00;99.90
42979;DHT22;28616;44.746;19.678;2023-07-28T22:38:20;23.00;99.90
42979;DHT22;28616;44.746;19.678;2023-07-28T22:40:45;22.90;99.90
42979;DHT22;28616;44.746;19.678;2023-07-28T22:43:11;22.90;99.90
42979;DHT22;28616;44.746;19.678;2023-07-28T22:45:37;22.90;99.90
42979;DHT22;28616;44.746;19.678;2023-07-28T22:48:03;22.80;99.90
42979;DHT22;28616;44.746;19.678;2023-07-28T22:50:29;22.80;99.90
42979;DHT22;28616;44.746;19.678;2023-07-28T22:52:55;22.80;99.90
42979;DHT22;28616;44.746;19.678;2023-07-28T22:55:20;22.80;99.90
42979;DHT22;28616;44.746;19.678;2023-07-28T22:57:46;22.70;99.90
42979;DHT22;28616;44.746;19.678;2023-07-28T23:00:13;22.70;99.90
42979;DHT22;28616;44.746;19.678;2023-07-28T23:02:41;22.70;99.90
42979;DHT22;28616;44.746;19.678;2023-07-28T23:05:07;22.70;99.90
42979;DHT22;28616;44.746;19.678;2023-07-28T23:07:36;22.60;99.90
42979;DHT22;28616;44.746;19.678;2023-07-28T23:10:03;22.60;99.90
42979;DHT22;28616;44.746;19.678;2023-07-28T23:12:29;22.50;99.90
42979;DHT22;28616;44.746;19.678;2023-07-28T23:14:55;22.50;99.90
42979;DHT22;28616;44.746;19.678;2023-07-28T23:17:21;22.50;99.90
42979;DHT22;28616;44.746;19.678;2023-07-28T23:19:47;22.50;99.90
42979;DHT22;28616;44.746;19.678;2023-07-28T23:22:14;22.40;99.90
42979;DHT22;28616;44.746;19.678;2023-07-28T23:24:40;22.30;99.90
42979;DHT22;28616;44.746;19.678;2023-07-28T23:27:07;22.30;99.90
42979;DHT22;28616;44.746;19.678;2023-07-28T23:29:33;22.30;99.90
42979;DHT22;28616;44.746;19.678;2023-07-28T23:31:59;22.30;99.90
42979;DHT22;28616;44.746;19.678;2023-07-28T23:34:24;22.20;99.90
42979;DHT22;28616;44.746;19.678;2023-07-28T23:36:50;22.20;99.90
42979;DHT22;28616;44.746;19.678;2023-07-28T23:39:19;22.10;99.90
42979;DHT22;28616;44.746;19.678;2023-07-28T23:41:45;22.10;99.90
42979;DHT22;28616;44.746;19.678;2023-07-28T23:44:10;22.10;99.90
42979;DHT22;28616;44.746;19.678;2023-07-28T23:46:37;22.10;99.90
42979;DHT22;28616;44.746;19.678;2023-07-28T23:49:03;22.10;99.90
42979;DHT22;28616;44.746;19.678;2023-07-28T23:51:29;22.10;99.90
42979;DHT22;28616;44.746;19.678;2023-07-28T23:53:54;22.10;99.90
42979;DHT22;28616;44.746;19.678;2023-07-28T23:56:20;22.10;99.90
42979;DHT22;28616;44.746;19.678;2023-07-28T23:58:46;22.10;99.90
